createdAt,value
2022-10-28T00:00:53.341Z,101534.81
2022-10-28T00:03:21.456Z,101530.91
2022-10-28T00:05:49.385Z,101530.53
2022-10-28T00:08:17.156Z,101537.22
2022-10-28T00:10:46.432Z,101530.97
2022-10-28T00:13:14.259Z,101529.47
2022-10-28T00:15:42.026Z,101530.31
2022-10-28T00:18:11.404Z,101524.44
2022-10-28T00:20:39.192Z,101517.41
2022-10-28T00:23:07.112Z,101516.25
2022-10-28T00:25:34.908Z,101515.44
2022-10-28T00:28:04.127Z,101513.84
2022-10-28T00:32:59.593Z,101533.44
2022-10-28T00:35:27.448Z,101533.00
2022-10-28T00:37:55.226Z,101525.44
2022-10-28T00:40:23.342Z,101520.25
2022-10-28T00:42:51.878Z,101525.31
2022-10-28T00:45:21.249Z,101519.00
2022-10-28T00:47:55.609Z,101531.97
2022-10-28T00:50:34.815Z,101527.63
2022-10-28T00:53:07.836Z,101523.72
2022-10-28T00:55:37.389Z,101514.22
2022-10-28T00:58:07.921Z,101509.50
2022-10-28T01:00:38.766Z,101507.16
2022-10-28T01:03:06.603Z,101505.56
2022-10-28T01:05:37.121Z,101502.41
2022-10-28T01:08:06.214Z,101514.22
2022-10-28T01:10:53.541Z,101510.66
2022-10-28T01:13:33.136Z,101513.03
2022-10-28T01:16:09.133Z,101524.88
2022-10-28T01:18:50.212Z,101522.84
2022-10-28T01:21:41.368Z,101514.88
2022-10-28T01:24:27.865Z,101519.59
2022-10-28T01:27:09.531Z,101519.97
2022-10-28T01:30:01.080Z,101515.63
2022-10-28T01:32:36.273Z,101509.75
2022-10-28T01:35:15.051Z,101505.81
2022-10-28T01:37:50.468Z,101503.97
2022-10-28T01:40:24.758Z,101507.16
2022-10-28T01:42:57.073Z,101513.56
2022-10-28T01:45:29.870Z,101506.50
2022-10-28T01:48:02.631Z,101506.50
2022-10-28T01:50:38.543Z,101510.53
2022-10-28T01:53:11.883Z,101501.09
2022-10-28T01:55:42.944Z,101505.00
2022-10-28T01:58:14.871Z,101503.84
2022-10-28T02:00:45.448Z,101504.28
2022-10-28T02:03:14.949Z,101504.28
2022-10-28T02:05:45.169Z,101504.28
2022-10-28T02:08:45.102Z,101497.81
2022-10-28T02:11:26.437Z,101501.38
2022-10-28T02:14:04.830Z,101500.63
2022-10-28T02:16:44.065Z,101501.38
2022-10-28T02:19:20.245Z,101500.16
2022-10-28T02:21:59.365Z,101499.19
2022-10-28T02:24:35.860Z,101495.16
2022-10-28T02:27:13.929Z,101493.53
2022-10-28T02:29:47.962Z,101478.47
2022-10-28T02:32:19.984Z,101491.03
2022-10-28T02:34:54.068Z,101486.22
2022-10-28T02:37:25.979Z,101485.38
2022-10-28T02:39:58.007Z,101486.03
2022-10-28T02:42:29.997Z,101478.13
2022-10-28T02:45:02.768Z,101487.56
2022-10-28T02:47:35.292Z,101481.59
2022-10-28T02:50:08.427Z,101484.72
2022-10-28T02:52:37.349Z,101474.31
2022-10-28T02:55:07.152Z,101474.75
2022-10-28T02:57:38.519Z,101464.09
2022-10-28T03:00:09.028Z,101473.91
2022-10-28T03:02:37.031Z,101466.81
2022-10-28T03:05:07.423Z,101473.47
2022-10-28T03:07:35.436Z,101465.91
2022-10-28T03:10:03.129Z,101465.47
2022-10-28T03:12:31.014Z,101470.56
2022-10-28T03:14:58.747Z,101462.63
2022-10-28T03:17:26.528Z,101467.72
2022-10-28T03:19:54.343Z,101464.16
2022-10-28T03:22:23.494Z,101461.41
2022-10-28T03:24:51.244Z,101455.47
2022-10-28T03:27:19.203Z,101449.97
2022-10-28T03:29:46.963Z,101453.16
2022-10-28T03:32:14.877Z,101450.75
2022-10-28T03:34:42.726Z,101449.16
2022-10-28T03:37:10.647Z,101449.97
2022-10-28T03:39:39.987Z,101442.88
2022-10-28T03:42:07.771Z,101449.06
2022-10-28T03:44:35.695Z,101437.25
2022-10-28T03:47:03.454Z,101436.47
2022-10-28T03:49:31.224Z,101436.47
2022-10-28T03:51:59.067Z,101430.16
2022-10-28T03:54:26.854Z,101434.88
2022-10-28T03:56:56.013Z,101432.50
2022-10-28T03:59:23.963Z,101430.88
2022-10-28T04:01:51.911Z,101431.69
2022-10-28T04:04:19.781Z,101433.97
2022-10-28T04:06:47.543Z,101440.66
2022-10-28T04:09:15.314Z,101435.88
2022-10-28T04:11:43.103Z,101443.25
2022-10-28T04:14:12.262Z,101443.19
2022-10-28T04:16:40.047Z,101443.09
2022-10-28T04:19:08.136Z,101442.22
2022-10-28T04:21:35.963Z,101437.38
2022-10-28T04:24:03.793Z,101443.63
2022-10-28T04:26:31.941Z,101444.31
2022-10-28T04:29:00.012Z,101446.63
2022-10-28T04:31:29.166Z,101456.06
2022-10-28T04:33:57.389Z,101452.88
2022-10-28T04:36:25.262Z,101448.06
2022-10-28T04:38:52.981Z,101457.47
2022-10-28T04:41:20.851Z,101451.97
2022-10-28T04:43:48.628Z,101450.38
2022-10-28T04:46:16.386Z,101440.84
2022-10-28T04:48:48.126Z,101451.44
2022-10-28T04:51:16.018Z,101447.44
2022-10-28T04:53:43.792Z,101454.53
2022-10-28T04:56:11.631Z,101454.13
2022-10-28T04:58:39.493Z,101449.31
2022-10-28T05:01:08.417Z,101455.59
2022-10-28T05:03:36.509Z,101436.69
2022-10-28T05:06:05.828Z,101440.97
2022-10-28T05:08:33.698Z,101441.34
2022-10-28T05:11:01.510Z,101452.34
2022-10-28T05:13:29.447Z,101449.59
2022-10-28T05:15:57.187Z,101449.59
2022-10-28T05:18:25.058Z,101453.47
2022-10-28T05:20:54.961Z,101452.78
2022-10-28T05:23:27.158Z,101456.41
2022-10-28T05:25:57.786Z,101450.19
2022-10-28T05:28:25.852Z,101450.63
2022-10-28T05:30:53.693Z,101459.78
2022-10-28T05:33:21.536Z,101464.56
2022-10-28T05:35:49.679Z,101455.16
2022-10-28T05:38:17.570Z,101452.88
2022-10-28T05:40:46.807Z,101455.31
2022-10-28T05:43:14.532Z,101450.72
2022-10-28T05:45:42.406Z,101447.53
2022-10-28T05:48:10.258Z,101453.91
2022-10-28T05:50:38.056Z,101450.78
2022-10-28T05:53:05.791Z,101455.50
2022-10-28T05:55:33.871Z,101455.97
2022-10-28T05:58:03.808Z,101449.75
2022-10-28T06:00:32.135Z,101454.09
2022-10-28T06:03:04.309Z,101450.19
2022-10-28T06:05:32.211Z,101448.59
2022-10-28T06:07:59.997Z,101454.09
2022-10-28T06:10:27.880Z,101448.53
2022-10-28T06:12:54.931Z,101449.97
2022-10-28T06:15:24.218Z,101455.06
2022-10-28T06:17:52.008Z,101462.41
2022-10-28T06:20:20.829Z,101458.53
2022-10-28T06:22:49.616Z,101460.81
2022-10-28T06:25:18.857Z,101458.06
2022-10-28T06:27:52.730Z,101454.88
2022-10-28T06:30:21.791Z,101455.63
2022-10-28T06:32:51.233Z,101459.97
2022-10-28T06:35:19.494Z,101462.25
2022-10-28T06:37:47.329Z,101464.94
2022-10-28T06:40:15.336Z,101468.03
2022-10-28T06:42:43.236Z,101463.69
2022-10-28T06:45:11.085Z,101470.78
2022-10-28T06:47:41.600Z,101468.47
2022-10-28T06:50:11.465Z,101472.38
2022-10-28T06:52:39.290Z,101474.72
2022-10-28T06:55:07.984Z,101480.22
2022-10-28T06:57:35.810Z,101476.31
2022-10-28T07:00:03.667Z,101473.53
2022-10-28T07:02:31.553Z,101476.31
2022-10-28T07:04:59.355Z,101483.41
2022-10-28T07:07:28.445Z,101486.59
2022-10-28T07:09:56.442Z,101485.06
2022-10-28T07:12:24.299Z,101487.47
2022-10-28T07:14:52.134Z,101488.72
2022-10-28T07:17:20.079Z,101493.16
2022-10-28T07:19:47.953Z,101493.59
2022-10-28T07:22:15.800Z,101490.25
2022-10-28T07:24:45.038Z,101485.59
2022-10-28T07:27:13.002Z,101488.88
2022-10-28T07:29:41.289Z,101487.91
2022-10-28T07:32:09.052Z,101492.44
2022-10-28T07:34:36.858Z,101492.13
2022-10-28T07:37:06.138Z,101495.78
2022-10-28T07:39:34.058Z,101499.41
2022-10-28T07:42:03.894Z,101495.94
2022-10-28T07:44:31.658Z,101493.63
2022-10-28T07:46:59.456Z,101492.91
2022-10-28T07:49:27.533Z,101498.41
2022-10-28T07:51:55.373Z,101503.19
2022-10-28T07:54:23.136Z,101495.38
2022-10-28T07:56:50.995Z,101501.75
2022-10-28T07:59:25.843Z,101503.34
2022-10-28T08:01:55.246Z,101496.25
2022-10-28T08:04:23.119Z,101505.69
2022-10-28T08:06:50.899Z,101507.28
2022-10-28T08:09:18.714Z,101509.22
2022-10-28T08:11:46.482Z,101513.94
2022-10-28T08:14:14.445Z,101519.44
2022-10-28T08:16:43.689Z,101516.69
2022-10-28T08:19:12.023Z,101511.19
2022-10-28T08:21:40.130Z,101515.53
2022-10-28T08:24:08.839Z,101514.81
2022-10-28T08:26:36.823Z,101508.13
2022-10-28T08:29:04.627Z,101508.13
2022-10-28T08:31:34.725Z,101501.91
2022-10-28T08:34:03.978Z,101503.13
2022-10-28T08:36:32.036Z,101502.78
2022-10-28T08:39:01.664Z,101498.88
2022-10-28T08:41:37.309Z,101492.63
2022-10-28T08:44:41.892Z,101493.38
2022-10-28T08:47:20.749Z,101484.78
2022-10-28T08:49:56.192Z,101480.97
2022-10-28T08:52:29.366Z,101485.72
2022-10-28T08:55:03.657Z,101495.44
2022-10-28T08:57:40.901Z,101490.84
2022-10-28T09:00:18.222Z,101480.34
2022-10-28T09:02:58.903Z,101494.97
2022-10-28T09:05:28.981Z,101488.06
2022-10-28T09:07:58.266Z,101485.94
2022-10-28T09:10:49.812Z,101489.25
2022-10-28T09:13:29.141Z,101484.31
2022-10-28T09:16:10.194Z,101484.84
2022-10-28T09:18:54.763Z,101481.94
2022-10-28T09:21:32.349Z,101478.53
2022-10-28T09:24:05.732Z,101482.69
2022-10-28T09:26:43.145Z,101476.53
2022-10-28T09:29:26.689Z,101481.84
2022-10-28T09:31:59.797Z,101480.47
2022-10-28T09:34:38.885Z,101471.53
2022-10-28T09:37:15.172Z,101476.06
2022-10-28T09:39:45.520Z,101473.00
2022-10-28T09:42:19.214Z,101473.09
2022-10-28T09:44:56.468Z,101484.59
2022-10-28T09:47:28.247Z,101479.09
2022-10-28T09:50:00.359Z,101479.16
2022-10-28T09:52:35.427Z,101476.03
2022-10-28T09:55:09.632Z,101480.06
2022-10-28T09:57:37.439Z,101481.72
2022-10-28T10:00:06.470Z,101490.09
2022-10-28T10:02:36.103Z,101487.81
2022-10-28T10:05:04.359Z,101498.94
2022-10-28T10:07:37.791Z,101502.84
2022-10-28T10:10:11.812Z,101502.44
2022-10-28T10:12:40.085Z,101502.44
2022-10-28T10:15:14.881Z,101502.91
2022-10-28T10:17:46.242Z,101498.22
2022-10-28T10:20:16.398Z,101499.44
2022-10-28T10:22:48.054Z,101505.47
2022-10-28T10:25:26.431Z,101503.09
2022-10-28T10:27:57.474Z,101502.34
2022-10-28T10:30:29.697Z,101496.47
2022-10-28T10:32:59.012Z,101497.69
2022-10-28T10:35:29.463Z,101496.16
2022-10-28T10:38:00.835Z,101502.50
2022-10-28T10:40:31.305Z,101500.97
2022-10-28T10:43:20.726Z,101501.78
2022-10-28T10:45:53.759Z,101497.53
2022-10-28T10:48:21.813Z,101498.78
2022-10-28T10:50:51.387Z,101495.31
2022-10-28T10:53:24.689Z,101489.00
2022-10-28T10:55:56.076Z,101487.91
2022-10-28T10:58:26.438Z,101480.75
2022-10-28T11:00:56.447Z,101479.59
2022-10-28T11:03:28.997Z,101478.06
2022-10-28T11:06:22.507Z,101467.44
2022-10-28T11:08:47.944Z,101472.66
2022-10-28T11:11:20.857Z,101465.53
2022-10-28T11:13:50.132Z,101467.53
2022-10-28T11:16:19.776Z,101469.97
2022-10-28T11:18:49.587Z,101463.63
2022-10-28T11:21:42.960Z,101458.88
2022-10-28T11:24:30.953Z,101467.59
2022-10-28T11:27:09.716Z,101458.06
2022-10-28T11:29:37.724Z,101450.94
2022-10-28T11:32:18.260Z,101447.41
2022-10-28T11:35:05.180Z,101450.97
2022-10-28T11:37:48.768Z,101437.91
2022-10-28T11:40:31.348Z,101448.25
2022-10-28T11:43:19.587Z,101440.25
2022-10-28T11:45:56.902Z,101429.59
2022-10-28T11:48:40.605Z,101439.09
2022-10-28T11:51:24.307Z,101439.09
2022-10-28T11:54:05.477Z,101434.78
2022-10-28T11:56:40.604Z,101433.19
2022-10-28T11:59:31.159Z,101423.31
2022-10-28T12:02:13.847Z,101431.22
2022-10-28T12:04:53.825Z,101424.09
2022-10-28T12:07:46.114Z,101420.16
2022-10-28T12:10:36.965Z,101413.88
2022-10-28T12:13:15.815Z,101413.50
2022-10-28T12:15:51.661Z,101413.13
2022-10-28T12:18:27.056Z,101409.94
2022-10-28T12:21:00.588Z,101406.00
2022-10-28T12:23:30.686Z,101403.22
2022-10-28T12:26:00.888Z,101415.50
2022-10-28T12:28:35.000Z,101401.22
2022-10-28T12:31:03.965Z,101391.75
2022-10-28T12:33:38.225Z,101389.38
2022-10-28T12:36:20.927Z,101378.25
2022-10-28T12:38:57.166Z,101391.34
2022-10-28T12:41:27.686Z,101386.97
2022-10-28T12:44:00.867Z,101389.34
2022-10-28T12:46:39.083Z,101396.47
2022-10-28T12:49:16.486Z,101392.53
2022-10-28T12:51:45.231Z,101396.47
2022-10-28T12:54:24.171Z,101387.75
2022-10-28T12:56:56.104Z,101392.91
2022-10-28T12:59:33.707Z,101394.91
2022-10-28T13:02:04.057Z,101391.75
2022-10-28T13:04:32.066Z,101392.53
2022-10-28T13:07:20.905Z,101398.09
2022-10-28T13:09:57.932Z,101390.16
2022-10-28T13:13:13.504Z,101404.44
2022-10-28T13:16:01.990Z,101404.44
2022-10-28T13:18:50.365Z,101400.47
2022-10-28T13:21:31.621Z,101415.13
2022-10-28T13:24:11.918Z,101413.94
2022-10-28T13:26:44.079Z,101420.72
2022-10-28T13:29:23.018Z,101423.84
2022-10-28T13:31:53.462Z,101427.44
2022-10-28T13:34:24.000Z,101426.63
2022-10-28T13:36:58.031Z,101427.84
2022-10-28T13:39:40.682Z,101432.19
2022-10-28T13:42:45.616Z,101434.97
2022-10-28T13:45:48.317Z,101435.38
2022-10-28T13:48:49.264Z,101432.19
2022-10-28T13:51:46.414Z,101434.63
2022-10-28T13:54:26.684Z,101435.41
2022-10-28T13:56:55.913Z,101433.03
2022-10-28T13:59:29.251Z,101438.59
2022-10-28T14:02:35.603Z,101450.03
2022-10-28T14:05:08.103Z,101459.94
2022-10-28T14:07:37.983Z,101465.50
2022-10-28T14:10:20.381Z,101461.53
2022-10-28T14:12:51.979Z,101452.41
2022-10-28T14:15:26.414Z,101456.78
2022-10-28T14:18:09.834Z,101459.16
2022-10-28T14:21:00.711Z,101464.72
2022-10-28T14:24:10.754Z,101472.63
2022-10-28T14:27:30.819Z,101474.19
2022-10-28T14:30:20.780Z,101471.41
2022-10-28T14:33:13.775Z,101472.19
2022-10-28T14:35:43.893Z,101481.69
2022-10-28T14:38:47.323Z,101488.41
2022-10-28T14:41:35.919Z,101495.56
2022-10-28T14:44:16.864Z,101491.59
2022-10-28T14:46:57.261Z,101501.91
2022-10-28T14:49:27.419Z,101504.28
2022-10-28T14:51:56.369Z,101493.97
2022-10-28T14:54:38.118Z,101507.44
2022-10-28T14:57:10.304Z,101507.44
2022-10-28T14:59:41.514Z,101511.41
2022-10-28T15:02:13.775Z,101516.16
2022-10-28T15:04:44.074Z,101520.13
2022-10-28T15:07:15.326Z,101525.25
2022-10-28T15:09:44.554Z,101531.19
2022-10-28T15:12:16.784Z,101526.41
2022-10-28T15:14:48.488Z,101531.16
2022-10-28T15:17:19.538Z,101534.69
2022-10-28T15:19:49.213Z,101538.63
2022-10-28T15:22:20.671Z,101535.38
2022-10-28T15:25:00.522Z,101536.94
2022-10-28T15:27:32.100Z,101534.16
2022-10-28T15:30:00.416Z,101531.69
2022-10-28T15:32:31.501Z,101536.44
2022-10-28T15:34:59.942Z,101535.22
2022-10-28T15:37:29.803Z,101545.91
2022-10-28T15:40:20.295Z,101542.25
2022-10-28T15:42:55.000Z,101530.34
2022-10-28T15:45:26.742Z,101529.91
2022-10-28T15:47:56.532Z,101531.88
2022-10-28T15:50:30.684Z,101539.38
2022-10-28T15:53:36.530Z,101544.03
2022-10-28T15:56:26.100Z,101549.50
2022-10-28T15:59:11.841Z,101553.06
2022-10-28T16:01:41.125Z,101558.94
2022-10-28T16:04:45.125Z,101561.28
2022-10-28T16:07:13.376Z,101561.31
2022-10-28T16:09:47.122Z,101572.38
2022-10-28T16:12:16.987Z,101576.34
2022-10-28T16:14:47.107Z,101576.34
2022-10-28T16:17:18.019Z,101584.25
2022-10-28T16:19:52.464Z,101586.56
2022-10-28T16:22:21.128Z,101596.06
2022-10-28T16:24:54.397Z,101603.16
2022-10-28T16:27:24.806Z,101592.88
2022-10-28T16:29:52.915Z,101589.72
2022-10-28T16:32:27.832Z,101591.25
2022-10-28T16:34:58.640Z,101603.88
2022-10-28T16:37:28.889Z,101601.47
2022-10-28T16:39:57.750Z,101600.59
2022-10-28T16:42:26.588Z,101598.19
2022-10-28T16:44:54.423Z,101597.28
2022-10-28T16:47:25.587Z,101599.59
2022-10-28T16:49:57.274Z,101613.34
2022-10-28T16:52:29.853Z,101611.25
2022-10-28T16:54:58.759Z,101612.75
2022-10-28T16:57:27.288Z,101614.69
2022-10-28T16:59:55.868Z,101610.28
2022-10-28T17:02:26.970Z,101611.03
2022-10-28T17:04:55.070Z,101607.78
2022-10-28T17:07:22.998Z,101610.91
2022-10-28T17:09:52.974Z,101615.56
2022-10-28T17:12:23.645Z,101621.00
2022-10-28T17:14:51.872Z,101625.69
2022-10-28T17:17:19.791Z,101635.47
2022-10-28T17:19:47.653Z,101636.53
2022-10-28T17:22:15.671Z,101646.72
2022-10-28T17:24:43.454Z,101656.94
2022-10-28T17:27:12.941Z,101657.69
2022-10-28T17:29:41.061Z,101656.78
2022-10-28T17:32:09.470Z,101660.72
2022-10-28T17:34:37.287Z,101667.00
2022-10-28T17:37:05.973Z,101659.00
2022-10-28T17:39:33.804Z,101659.00
2022-10-28T17:42:01.633Z,101662.53
2022-10-28T17:44:30.930Z,101652.63
2022-10-28T17:46:58.708Z,101664.84
2022-10-28T17:49:26.501Z,101663.25
2022-10-28T17:51:55.205Z,101664.41
2022-10-28T17:56:51.866Z,101653.63
2022-10-28T17:59:21.084Z,101665.75
2022-10-28T18:01:50.492Z,101671.63
2022-10-28T18:04:20.039Z,101671.09
2022-10-28T18:06:47.883Z,101669.44
2022-10-28T18:09:15.769Z,101672.94
2022-10-28T18:11:43.721Z,101670.91
2022-10-28T18:14:11.570Z,101668.00
2022-10-28T18:16:39.407Z,101666.69
2022-10-28T18:19:09.175Z,101672.53
2022-10-28T18:21:37.004Z,101679.94
2022-10-28T18:24:05.744Z,101683.00
2022-10-28T18:26:35.020Z,101686.03
2022-10-28T18:29:04.137Z,101687.47
2022-10-28T18:31:33.048Z,101688.94
2022-10-28T18:34:01.842Z,101692.75
2022-10-28T18:36:34.567Z,101691.91
2022-10-28T18:39:03.745Z,101692.97
2022-10-28T18:41:32.587Z,101698.78
2022-10-28T18:44:02.132Z,101701.84
2022-10-28T18:46:31.298Z,101710.81
2022-10-28T18:51:35.775Z,101714.22
2022-10-28T18:54:03.882Z,101714.16
2022-10-28T18:56:32.012Z,101707.75
2022-10-28T18:59:02.634Z,101710.88
2022-10-28T19:01:31.789Z,101710.06
2022-10-28T19:04:01.269Z,101730.97
2022-10-28T19:06:33.122Z,101732.94
2022-10-28T19:09:03.879Z,101734.47
2022-10-28T19:11:32.931Z,101730.09
2022-10-28T19:14:02.852Z,101734.47
2022-10-28T19:16:33.395Z,101739.97
2022-10-28T19:19:02.946Z,101727.34
2022-10-28T19:21:30.924Z,101733.19
2022-10-28T19:23:59.037Z,101743.00
2022-10-28T19:26:30.375Z,101735.88
2022-10-28T19:28:58.226Z,101741.75
2022-10-28T19:31:27.735Z,101743.72
2022-10-28T19:33:56.013Z,101746.81
2022-10-28T19:36:25.374Z,101755.44
2022-10-28T19:38:54.428Z,101750.66
2022-10-28T19:41:23.916Z,101760.78
2022-10-28T19:43:58.204Z,101764.13
2022-10-28T19:46:27.778Z,101758.91
2022-10-28T19:48:56.665Z,101762.72
2022-10-28T19:51:27.331Z,101761.81
2022-10-28T19:53:56.326Z,101766.47
2022-10-28T19:56:24.697Z,101771.06
2022-10-28T19:58:54.312Z,101760.41
2022-10-28T20:01:25.195Z,101765.84
2022-10-28T20:03:54.518Z,101769.28
2022-10-28T20:06:24.160Z,101763.34
2022-10-28T20:08:52.255Z,101774.72
2022-10-28T20:11:25.797Z,101777.38
2022-10-28T20:13:55.681Z,101773.00
2022-10-28T20:16:26.397Z,101786.34
2022-10-28T20:18:54.926Z,101781.53
2022-10-28T20:21:24.721Z,101785.44
2022-10-28T20:23:54.661Z,101779.84
2022-10-28T20:26:24.642Z,101792.00
2022-10-28T20:28:52.608Z,101782.13
2022-10-28T20:31:22.347Z,101790.75
2022-10-28T20:33:53.915Z,101802.50
2022-10-28T20:36:26.625Z,101798.13
2022-10-28T20:38:55.571Z,101801.56
2022-10-28T20:41:24.093Z,101805.50
2022-10-28T20:43:52.914Z,101799.19
2022-10-28T20:46:21.487Z,101803.91
2022-10-28T20:48:49.612Z,101796.44
2022-10-28T20:51:18.854Z,101801.56
2022-10-28T20:53:46.705Z,101811.00
2022-10-28T20:56:18.748Z,101817.31
2022-10-28T20:58:46.807Z,101815.72
2022-10-28T21:01:16.713Z,101822.00
2022-10-28T21:03:45.095Z,101824.78
2022-10-28T21:08:48.163Z,101835.34
2022-10-28T21:11:17.354Z,101836.13
2022-10-28T21:13:46.981Z,101828.22
2022-10-28T21:16:14.819Z,101832.59
2022-10-28T21:18:42.939Z,101831.31
2022-10-28T21:21:11.671Z,101835.22
2022-10-28T21:23:39.865Z,101829.63
2022-10-28T21:26:09.664Z,101846.84
2022-10-28T21:28:37.743Z,101840.44
2022-10-28T21:31:07.160Z,101843.44
2022-10-28T21:33:36.458Z,101846.38
2022-10-28T21:36:07.765Z,101851.00
2022-10-28T21:38:36.763Z,101855.94
2022-10-28T21:41:07.377Z,101856.97
2022-10-28T21:43:38.087Z,101861.56
2022-10-28T21:46:06.665Z,101857.47
2022-10-28T21:48:36.570Z,101860.44
2022-10-28T21:51:10.100Z,101860.34
2022-10-28T21:53:41.647Z,101856.66
2022-10-28T21:56:16.324Z,101855.41
2022-10-28T21:58:48.226Z,101854.50
2022-10-28T22:01:18.104Z,101850.84
2022-10-28T22:03:46.153Z,101855.41
2022-10-28T22:06:14.512Z,101857.22
2022-10-28T22:08:42.791Z,101844.63
2022-10-28T22:11:13.123Z,101852.44
2022-10-28T22:13:40.949Z,101844.88
2022-10-28T22:16:14.560Z,101845.56
2022-10-28T22:18:42.443Z,101850.59
2022-10-28T22:21:12.278Z,101851.41
2022-10-28T22:23:40.638Z,101853.69
2022-10-28T22:26:10.908Z,101853.34
2022-10-28T22:28:39.178Z,101856.91
2022-10-28T22:31:08.781Z,101844.31
2022-10-28T22:33:38.361Z,101849.44
2022-10-28T22:36:10.288Z,101850.59
2022-10-28T22:38:38.346Z,101847.06
2022-10-28T22:41:07.709Z,101857.69
2022-10-28T22:43:35.887Z,101859.75
2022-10-28T22:46:03.896Z,101860.22
2022-10-28T22:48:34.125Z,101866.63
2022-10-28T22:51:03.582Z,101860.47
2022-10-28T22:53:31.608Z,101861.72
2022-10-28T22:55:59.936Z,101864.13
2022-10-28T22:58:28.661Z,101870.09
2022-10-28T23:01:06.024Z,101859.88
2022-10-28T23:03:36.568Z,101863.88
2022-10-28T23:06:06.406Z,101858.38
2022-10-28T23:08:34.690Z,101861.13
2022-10-28T23:11:02.642Z,101858.75
2022-10-28T23:13:30.565Z,101862.28
2022-10-28T23:15:58.382Z,101867.78
2022-10-28T23:18:28.195Z,101867.34
2022-10-28T23:20:55.944Z,101872.38
2022-10-28T23:23:25.075Z,101868.00
2022-10-28T23:25:54.088Z,101867.56
2022-10-28T23:28:21.974Z,101873.72
2022-10-28T23:30:52.777Z,101871.69
2022-10-28T23:33:21.038Z,101871.91
2022-10-28T23:35:55.030Z,101878.78
2022-10-28T23:38:22.892Z,101873.97
2022-10-28T23:41:00.034Z,101886.34
2022-10-28T23:43:28.424Z,101900.44
2022-10-28T23:45:56.666Z,101876.03
2022-10-28T23:48:25.644Z,101875.09
2022-10-28T23:50:53.632Z,101879.34
2022-10-28T23:53:22.116Z,101884.31
2022-10-28T23:55:51.886Z,101887.41
2022-10-28T23:58:22.611Z,101877.13
